Date,TemperatureHighF,TemperatureAvgF,TemperatureLowF,DewpointHighF,DewpointAvgF,DewpointLowF,HumidityHigh,HumidityAvg,HumidityLow,PressureMaxIn,PressureMinIn,WindSpeedMaxMPH,WindSpeedAvgMPH,GustSpeedMaxMPH,PrecipitationSumIn
2013-2-1,0.5,-5.8,-15.0,-4.0,-14.5,-21.1,81,65,48,30.27,30.06,14,6,18,0.00
2013-2-2,13.8,4.6,-2.2,1.9,-2.9,-6.2,85,72,46,30.15,29.96,8,4,9,0.00
2013-2-3,18.0,9.8,4.3,3.9,1.9,-0.7,87,71,47,30.02,29.93,14,5,20,0.00
2013-2-4,18.1,9.4,1.0,5.1,-1.0,-7.6,85,63,39,30.05,29.83,12,4,13,0.00
2013-2-5,26.6,18.2,9.1,22.5,13.1,1.2,96,81,58,30.07,29.65,15,7,18,0.00
2013-2-6,24.3,14.9,3.2,22.3,12.0,0.2,92,88,78,30.14,29.99,15,5,15,0.00
2013-2-7,25.0,24.0,23.0,24.2,22.3,20.0,99,93,88,30.24,30.02,15,7,17,0.00
2013-2-8,28.2,18.9,10.0,20.0,10.7,6.2,90,71,47,30.39,30.24,14,4,14,0.00
2013-2-9,28.0,22.9,11.5,25.8,20.0,5.9,96,88,75,30.29,29.99,24,13,25,0.00
2013-2-10,34.7,29.5,24.6,34.5,28.8,22.8,99,97,91,30.00,29.28,20,6,20,0.07
2013-2-11,32.9,26.6,14.4,32.5,24.2,10.5,99,91,80,30.01,29.28,22,9,22,0.01
2013-2-12,33.8,23.5,13.8,25.0,18.2,11.6,91,81,63,30.03,29.80,22,9,22,0.00
2013-2-13,36.0,27.9,20.3,30.5,23.3,18.1,99,83,66,29.81,29.59,13,5,13,0.00
2013-2-14,35.4,26.3,12.7,30.3,20.2,1.2,99,79,52,30.11,29.59,15,6,17,0.00
2013-2-15,19.8,11.8,5.9,4.5,0.8,-1.2,74,61,45,30.24,30.11,15,6,18,0.00
2013-2-16,20.5,8.7,0.1,3.7,-0.6,-4.2,82,66,43,30.20,30.14,8,4,8,0.00
2013-2-17,29.1,13.9,-2.7,15.4,5.1,-6.7,85,69,50,30.15,29.75,21,11,23,0.00
2013-2-18,37.4,24.9,14.4,29.8,20.2,10.2,92,82,68,29.76,29.52,23,9,24,0.00
2013-2-19,14.4,6.6,1.0,9.9,-3.7,-8.5,82,62,45,30.27,29.67,21,11,25,0.00
2013-2-20,23.4,9.2,-4.4,7.2,-0.2,-9.9,81,66,47,30.41,30.27,13,5,15,0.00
2013-2-21,22.5,13.4,2.8,14.4,4.6,-1.7,84,68,49,30.45,30.11,12,5,15,0.00
2013-2-22,30.4,23.8,19.9,25.4,21.4,14.1,96,91,75,30.11,29.83,15,5,17,0.00
2013-2-23,33.3,25.0,20.7,26.2,22.1,20.0,99,89,71,29.95,29.82,11,5,13,0.00
2013-2-24,37.9,27.6,18.1,24.5,20.1,16.5,95,74,49,30.11,29.94,11,4,11,0.00
2013-2-25,33.1,28.0,23.7,27.0,23.7,19.6,89,84,76,30.12,30.04,9,3,9,0.00
2013-2-26,39.2,31.7,27.0,26.6,24.8,23.4,88,76,55,30.07,29.85,20,8,21,0.00
2013-2-27,35.6,31.2,28.8,27.5,25.0,22.5,86,78,67,29.98,29.82,19,11,24,0.00
2013-2-28,30.6,27.3,21.7,25.5,20.1,14.2,85,74,63,30.22,29.97,19,10,21,0.00